sensor_id;sensor_type;location;lat;lon;timestamp;pressure;altitude;pressure_sealevel;temperature;humidity
55757;BME280;41676;44.610;44.078;2023-03-03T00:00:57;101016.13;;;-2.24;79.89
55757;BME280;41676;44.610;44.078;2023-03-03T00:05:58;101017.75;;;-2.21;79.96
55757;BME280;41676;44.610;44.078;2023-03-03T00:10:59;101010.50;;;-2.15;80.06
55757;BME280;41676;44.610;44.078;2023-03-03T00:16:30;101023.00;;;-2.04;80.66
55757;BME280;41676;44.610;44.078;2023-03-03T00:21:55;100907.19;;;-2.50;79.86
55757;BME280;41676;44.610;44.078;2023-03-03T00:26:56;100923.91;;;-2.18;80.08
55757;BME280;41676;44.610;44.078;2023-03-03T00:32:20;101000.41;;;-1.48;81.21
55757;BME280;41676;44.610;44.078;2023-03-03T00:37:25;100999.16;;;-1.58;79.04
55757;BME280;41676;44.610;44.078;2023-03-03T00:42:27;100997.25;;;-1.55;79.84
55757;BME280;41676;44.610;44.078;2023-03-03T00:47:36;100995.09;;;-1.47;81.33
55757;BME280;41676;44.610;44.078;2023-03-03T00:53:32;100992.13;;;-1.39;81.22
55757;BME280;41676;44.610;44.078;2023-03-03T00:58:08;100978.44;;;-1.62;79.97
55757;BME280;41676;44.610;44.078;2023-03-03T01:03:16;100991.03;;;-1.35;81.05
55757;BME280;41676;44.610;44.078;2023-03-03T01:08:17;100881.78;;;-1.73;79.73
55757;BME280;41676;44.610;44.078;2023-03-03T01:13:21;100956.25;;;-1.34;79.96
55757;BME280;41676;44.610;44.078;2023-03-03T01:18:23;100878.19;;;-1.70;79.37
55757;BME280;41676;44.610;44.078;2023-03-03T01:23:23;100875.41;;;-1.67;80.19
55757;BME280;41676;44.610;44.078;2023-03-03T01:28:24;100940.38;;;-1.29;80.16
55757;BME280;41676;44.610;44.078;2023-03-03T01:33:25;100968.75;;;-1.23;80.01
55757;BME280;41676;44.610;44.078;2023-03-03T01:38:25;100982.91;;;-1.29;80.00
55757;BME280;41676;44.610;44.078;2023-03-03T01:43:28;100946.28;;;-1.61;79.80
55757;BME280;41676;44.610;44.078;2023-03-03T01:48:33;100864.19;;;-2.04;80.58
55757;BME280;41676;44.610;44.078;2023-03-03T01:53:40;100840.88;;;-2.24;80.12
55757;BME280;41676;44.610;44.078;2023-03-03T01:59:09;100974.00;;;-1.59;81.55
55757;BME280;41676;44.610;44.078;2023-03-03T02:04:11;100963.50;;;-1.75;80.19
55757;BME280;41676;44.610;44.078;2023-03-03T02:09:17;100974.38;;;-1.85;80.21
55757;BME280;41676;44.610;44.078;2023-03-03T02:14:23;100981.97;;;-1.99;80.62
55757;BME280;41676;44.610;44.078;2023-03-03T02:19:57;100964.81;;;-2.03;81.36
55757;BME280;41676;44.610;44.078;2023-03-03T02:25:05;100926.72;;;-2.42;80.28
55757;BME280;41676;44.610;44.078;2023-03-03T02:30:15;100896.38;;;-2.60;80.74
55757;BME280;41676;44.610;44.078;2023-03-03T02:40:32;100934.03;;;-2.50;81.10
55757;BME280;41676;44.610;44.078;2023-03-03T02:45:41;100974.47;;;-2.24;81.53
55757;BME280;41676;44.610;44.078;2023-03-03T02:50:42;100983.69;;;-2.17;80.37
55757;BME280;41676;44.610;44.078;2023-03-03T02:55:43;100971.44;;;-2.34;80.28
55757;BME280;41676;44.610;44.078;2023-03-03T03:00:43;100946.06;;;-2.28;80.35
55757;BME280;41676;44.610;44.078;2023-03-03T03:05:47;100974.75;;;-2.11;80.79
55757;BME280;41676;44.610;44.078;2023-03-03T03:10:47;100989.00;;;-2.01;79.82
55757;BME280;41676;44.610;44.078;2023-03-03T03:15:48;100976.91;;;-2.02;79.60
55757;BME280;41676;44.610;44.078;2023-03-03T03:20:49;100977.34;;;-2.11;79.28
55757;BME280;41676;44.610;44.078;2023-03-03T03:25:50;100982.19;;;-2.22;79.82
55757;BME280;41676;44.610;44.078;2023-03-03T03:30:51;100963.00;;;-2.39;79.42
55757;BME280;41676;44.610;44.078;2023-03-03T03:35:51;100951.13;;;-2.44;80.23
55757;BME280;41676;44.610;44.078;2023-03-03T03:40:53;100942.41;;;-2.62;80.13
55757;BME280;41676;44.610;44.078;2023-03-03T03:45:54;100936.81;;;-2.73;80.17
55757;BME280;41676;44.610;44.078;2023-03-03T03:50:55;100842.47;;;-3.34;80.15
55757;BME280;41676;44.610;44.078;2023-03-03T03:55:55;100935.75;;;-2.88;80.72
55757;BME280;41676;44.610;44.078;2023-03-03T04:01:02;100911.09;;;-2.99;80.73
55757;BME280;41676;44.610;44.078;2023-03-03T04:06:03;100914.03;;;-2.87;80.47
55757;BME280;41676;44.610;44.078;2023-03-03T04:11:03;100865.81;;;-3.13;80.82
55757;BME280;41676;44.610;44.078;2023-03-03T04:16:04;100914.63;;;-2.62;81.37
55757;BME280;41676;44.610;44.078;2023-03-03T04:21:05;100908.97;;;-2.15;81.28
55757;BME280;41676;44.610;44.078;2023-03-03T04:26:07;100893.00;;;-1.90;80.93
55757;BME280;41676;44.610;44.078;2023-03-03T04:31:08;100873.34;;;-1.78;80.26
55757;BME280;41676;44.610;44.078;2023-03-03T04:36:09;100824.22;;;-1.68;80.06
55757;BME280;41676;44.610;44.078;2023-03-03T04:41:10;100923.41;;;-0.70;79.27
55757;BME280;41676;44.610;44.078;2023-03-03T04:46:10;100852.84;;;-0.84;79.19
55757;BME280;41676;44.610;44.078;2023-03-03T04:51:11;100915.88;;;-0.11;78.85
55757;BME280;41676;44.610;44.078;2023-03-03T04:56:12;100891.81;;;0.14;78.25
55757;BME280;41676;44.610;44.078;2023-03-03T05:01:13;100882.34;;;0.41;77.78
55757;BME280;41676;44.610;44.078;2023-03-03T05:06:14;100898.03;;;0.86;76.74
55757;BME280;41676;44.610;44.078;2023-03-03T05:11:16;100923.00;;;1.06;76.46
55757;BME280;41676;44.610;44.078;2023-03-03T05:16:17;100912.72;;;1.17;76.76
55757;BME280;41676;44.610;44.078;2023-03-03T05:21:17;100877.56;;;1.21;76.25
55757;BME280;41676;44.610;44.078;2023-03-03T05:26:18;100874.47;;;1.70;75.55
55757;BME280;41676;44.610;44.078;2023-03-03T05:31:19;100878.69;;;2.00;74.55
55757;BME280;41676;44.610;44.078;2023-03-03T05:36:20;100919.72;;;2.54;74.28
55757;BME280;41676;44.610;44.078;2023-03-03T05:41:21;100904.41;;;2.60;73.91
55757;BME280;41676;44.610;44.078;2023-03-03T05:46:21;100849.25;;;2.49;73.26
55757;BME280;41676;44.610;44.078;2023-03-03T05:51:22;100864.88;;;2.89;72.79
55757;BME280;41676;44.610;44.078;2023-03-03T05:56:23;100901.34;;;3.43;72.51
55757;BME280;41676;44.610;44.078;2023-03-03T06:01:24;100858.72;;;3.39;71.73
55757;BME280;41676;44.610;44.078;2023-03-03T06:06:24;100878.56;;;3.80;70.86
55757;BME280;41676;44.610;44.078;2023-03-03T06:11:25;100730.97;;;3.14;69.88
55757;BME280;41676;44.610;44.078;2023-03-03T06:16:26;100818.72;;;3.84;69.24
55757;BME280;41676;44.610;44.078;2023-03-03T06:21:26;100776.53;;;3.85;68.53
55757;BME280;41676;44.610;44.078;2023-03-03T06:26:27;100839.97;;;4.63;68.53
55757;BME280;41676;44.610;44.078;2023-03-03T06:31:28;100679.16;;;3.76;67.26
55757;BME280;41676;44.610;44.078;2023-03-03T06:36:29;100812.72;;;4.64;66.68
55757;BME280;41676;44.610;44.078;2023-03-03T06:41:29;100719.50;;;4.21;66.25
55757;BME280;41676;44.610;44.078;2023-03-03T06:46:30;100839.25;;;5.39;65.72
55757;BME280;41676;44.610;44.078;2023-03-03T06:51:36;100670.72;;;4.62;64.58
55757;BME280;41676;44.610;44.078;2023-03-03T06:56:40;100689.22;;;4.94;64.94
55757;BME280;41676;44.610;44.078;2023-03-03T07:01:42;100736.97;;;5.44;64.57
55757;BME280;41676;44.610;44.078;2023-03-03T07:06:44;100784.84;;;5.93;64.79
55757;BME280;41676;44.610;44.078;2023-03-03T07:11:44;100813.72;;;5.94;64.68
55757;BME280;41676;44.610;44.078;2023-03-03T07:16:46;100680.16;;;5.52;64.75
55757;BME280;41676;44.610;44.078;2023-03-03T07:21:51;100680.66;;;5.99;64.46
55757;BME280;41676;44.610;44.078;2023-03-03T07:27:05;100645.13;;;6.03;63.71
55757;BME280;41676;44.610;44.078;2023-03-03T07:32:49;100766.84;;;7.21;62.53
55757;BME280;41676;44.610;44.078;2023-03-03T07:37:49;100688.13;;;7.05;63.00
55757;BME280;41676;44.610;44.078;2023-03-03T07:42:50;100578.25;;;6.54;62.27
55757;BME280;41676;44.610;44.078;2023-03-03T07:47:52;100648.91;;;7.29;61.82
55757;BME280;41676;44.610;44.078;2023-03-03T07:52:58;100749.63;;;8.04;60.92
55757;BME280;41676;44.610;44.078;2023-03-03T08:03:15;100738.66;;;8.56;60.57
55757;BME280;41676;44.610;44.078;2023-03-03T08:08:32;100703.88;;;8.41;59.74
55757;BME280;41676;44.610;44.078;2023-03-03T08:13:37;100727.25;;;8.45;59.93
55757;BME280;41676;44.610;44.078;2023-03-03T08:18:39;100724.56;;;8.55;60.20
55757;BME280;41676;44.610;44.078;2023-03-03T08:23:42;100710.19;;;8.67;59.92
55757;BME280;41676;44.610;44.078;2023-03-03T08:28:42;100632.19;;;8.52;59.63
55757;BME280;41676;44.610;44.078;2023-03-03T08:33:44;100649.38;;;8.94;58.86
55757;BME280;41676;44.610;44.078;2023-03-03T08:38:45;100622.75;;;8.95;58.76
55757;BME280;41676;44.610;44.078;2023-03-03T08:43:45;100507.13;;;8.40;57.77
55757;BME280;41676;44.610;44.078;2023-03-03T08:48:46;100570.06;;;8.92;57.94
55757;BME280;41676;44.610;44.078;2023-03-03T08:53:47;100496.09;;;8.63;57.52
55757;BME280;41676;44.610;44.078;2023-03-03T08:58:47;100510.38;;;8.88;57.62
55757;BME280;41676;44.610;44.078;2023-03-03T09:03:48;100532.44;;;9.32;57.55
55757;BME280;41676;44.610;44.078;2023-03-03T09:08:49;100558.31;;;9.91;57.27
55757;BME280;41676;44.610;44.078;2023-03-03T09:14:01;100555.22;;;10.03;56.72
55757;BME280;41676;44.610;44.078;2023-03-03T09:19:27;100590.81;;;10.69;56.74
55757;BME280;41676;44.610;44.078;2023-03-03T09:24:35;100591.19;;;10.91;55.80
55757;BME280;41676;44.610;44.078;2023-03-03T09:29:37;100567.91;;;10.68;55.54
55757;BME280;41676;44.610;44.078;2023-03-03T09:34:42;100430.53;;;10.28;55.78
55757;BME280;41676;44.610;44.078;2023-03-03T09:39:43;100444.75;;;10.02;55.64
55757;BME280;41676;44.610;44.078;2023-03-03T09:50:47;100437.44;;;9.96;55.42
55757;BME280;41676;44.610;44.078;2023-03-03T09:56:16;100566.75;;;11.36;54.50
55757;BME280;41676;44.610;44.078;2023-03-03T10:01:48;100559.13;;;11.50;52.97
55757;BME280;41676;44.610;44.078;2023-03-03T10:07:11;100554.13;;;11.47;53.62
55757;BME280;41676;44.610;44.078;2023-03-03T10:22:54;100473.44;;;11.62;53.14
55757;BME280;41676;44.610;44.078;2023-03-03T10:34:04;100395.06;;;11.34;52.17
55757;BME280;41676;44.610;44.078;2023-03-03T11:12:07;100462.19;;;12.00;49.79
55757;BME280;41676;44.610;44.078;2023-03-03T11:22:17;100359.72;;;11.17;50.71
55757;BME280;41676;44.610;44.078;2023-03-03T11:38:26;100445.69;;;11.96;49.55
55757;BME280;41676;44.610;44.078;2023-03-03T11:43:51;100416.25;;;11.98;48.51
55757;BME280;41676;44.610;44.078;2023-03-03T11:49:46;100392.34;;;11.81;49.50
55757;BME280;41676;44.610;44.078;2023-03-03T11:55:04;100402.88;;;11.75;49.98
55757;BME280;41676;44.610;44.078;2023-03-03T12:05:44;100406.06;;;11.70;49.01
55757;BME280;41676;44.610;44.078;2023-03-03T12:10:49;100402.84;;;11.43;49.48
55757;BME280;41676;44.610;44.078;2023-03-03T12:27:29;100405.53;;;11.27;50.69
55757;BME280;41676;44.610;44.078;2023-03-03T12:37:57;100368.16;;;10.48;51.01
55757;BME280;41676;44.610;44.078;2023-03-03T12:48:18;100341.41;;;10.09;51.89
55757;BME280;41676;44.610;44.078;2023-03-03T13:19:53;100325.00;;;10.30;52.19
55757;BME280;41676;44.610;44.078;2023-03-03T13:30:32;100341.41;;;10.25;52.15
55757;BME280;41676;44.610;44.078;2023-03-03T13:35:54;100321.31;;;9.98;52.53
55757;BME280;41676;44.610;44.078;2023-03-03T13:46:10;100333.25;;;9.86;53.89
55757;BME280;41676;44.610;44.078;2023-03-03T13:51:35;100304.19;;;9.68;53.58
55757;BME280;41676;44.610;44.078;2023-03-03T14:07:29;100140.53;;;8.44;54.77
55757;BME280;41676;44.610;44.078;2023-03-03T14:13:01;100310.91;;;9.38;55.57
55757;BME280;41676;44.610;44.078;2023-03-03T14:28:21;100307.00;;;8.48;57.07
55757;BME280;41676;44.610;44.078;2023-03-03T14:33:28;100318.28;;;8.32;58.03
55757;BME280;41676;44.610;44.078;2023-03-03T14:43:38;100302.66;;;7.85;58.98
55757;BME280;41676;44.610;44.078;2023-03-03T14:48:50;100278.25;;;7.55;60.10
55757;BME280;41676;44.610;44.078;2023-03-03T14:53:51;100287.59;;;7.31;59.80
55757;BME280;41676;44.610;44.078;2023-03-03T15:09:33;100281.72;;;6.73;61.76
55757;BME280;41676;44.610;44.078;2023-03-03T15:14:44;100231.34;;;6.19;61.92
55757;BME280;41676;44.610;44.078;2023-03-03T15:25:38;100027.22;;;4.60;63.41
55757;BME280;41676;44.610;44.078;2023-03-03T15:30:59;100326.56;;;6.16;62.74
55757;BME280;41676;44.610;44.078;2023-03-03T15:36:15;100263.00;;;5.70;64.29
55757;BME280;41676;44.610;44.078;2023-03-03T16:02:25;100261.13;;;5.13;66.33
55757;BME280;41676;44.610;44.078;2023-03-03T16:24:20;100285.97;;;4.79;67.85
55757;BME280;41676;44.610;44.078;2023-03-03T17:01:44;100196.34;;;4.81;69.05
55757;BME280;41676;44.610;44.078;2023-03-03T17:06:56;100213.94;;;4.90;69.12
55757;BME280;41676;44.610;44.078;2023-03-03T17:12:17;100269.31;;;5.19;69.17
55757;BME280;41676;44.610;44.078;2023-03-03T17:17:43;100256.72;;;5.23;69.83
55757;BME280;41676;44.610;44.078;2023-03-03T17:49:52;100181.44;;;5.11;69.68
55757;BME280;41676;44.610;44.078;2023-03-03T17:55:08;100014.25;;;4.08;69.42
55757;BME280;41676;44.610;44.078;2023-03-03T18:11:29;100190.59;;;5.26;70.75
55757;BME280;41676;44.610;44.078;2023-03-03T18:22:04;100189.78;;;5.25;71.11
55757;BME280;41676;44.610;44.078;2023-03-03T18:27:33;100213.47;;;5.35;72.13
55757;BME280;41676;44.610;44.078;2023-03-03T18:37:56;100233.59;;;5.36;71.08
55757;BME280;41676;44.610;44.078;2023-03-03T18:42:57;100217.38;;;5.31;72.34
55757;BME280;41676;44.610;44.078;2023-03-03T18:48:09;100135.13;;;4.79;73.49
55757;BME280;41676;44.610;44.078;2023-03-03T18:53:27;100046.09;;;4.24;73.63
55757;BME280;41676;44.610;44.078;2023-03-03T18:58:37;100210.28;;;5.22;74.14
55757;BME280;41676;44.610;44.078;2023-03-03T19:08:53;100146.06;;;4.74;75.23
55757;BME280;41676;44.610;44.078;2023-03-03T19:19:30;100191.81;;;5.02;76.64
55757;BME280;41676;44.610;44.078;2023-03-03T19:24:33;100153.81;;;4.76;76.09
55757;BME280;41676;44.610;44.078;2023-03-03T19:34:56;100128.84;;;4.61;78.26
55757;BME280;41676;44.610;44.078;2023-03-03T19:40:24;100181.16;;;4.94;77.80
55757;BME280;41676;44.610;44.078;2023-03-03T19:45:50;100107.38;;;4.46;78.14
55757;BME280;41676;44.610;44.078;2023-03-03T20:01:44;100169.75;;;4.84;79.24
55757;BME280;41676;44.610;44.078;2023-03-03T20:34:10;100191.22;;;4.79;81.46
55757;BME280;41676;44.610;44.078;2023-03-03T20:39:37;100211.19;;;4.82;81.62
55757;BME280;41676;44.610;44.078;2023-03-03T20:55:25;100156.88;;;4.31;81.45
55757;BME280;41676;44.610;44.078;2023-03-03T21:00:51;100215.00;;;4.68;82.35
55757;BME280;41676;44.610;44.078;2023-03-03T21:05:58;100266.13;;;5.06;79.94
55757;BME280;41676;44.610;44.078;2023-03-03T21:10:59;100144.13;;;4.36;79.83
55757;BME280;41676;44.610;44.078;2023-03-03T21:16:10;100259.50;;;5.21;81.34
55757;BME280;41676;44.610;44.078;2023-03-03T21:21:11;100274.88;;;5.26;79.83
55757;BME280;41676;44.610;44.078;2023-03-03T21:26:11;100248.41;;;5.18;79.67
55757;BME280;41676;44.610;44.078;2023-03-03T21:31:13;100247.88;;;5.34;79.52
55757;BME280;41676;44.610;44.078;2023-03-03T21:36:21;100190.44;;;5.08;79.82
55757;BME280;41676;44.610;44.078;2023-03-03T21:41:23;100225.53;;;5.18;79.88
55757;BME280;41676;44.610;44.078;2023-03-03T21:46:24;100077.06;;;4.11;79.73
55757;BME280;41676;44.610;44.078;2023-03-03T21:51:25;100201.47;;;4.73;80.21
55757;BME280;41676;44.610;44.078;2023-03-03T21:56:28;100198.13;;;4.71;80.55
55757;BME280;41676;44.610;44.078;2023-03-03T22:01:28;100188.31;;;4.83;80.22
55757;BME280;41676;44.610;44.078;2023-03-03T22:06:29;100177.97;;;4.91;80.49
55757;BME280;41676;44.610;44.078;2023-03-03T22:11:30;100085.72;;;4.32;80.76
55757;BME280;41676;44.610;44.078;2023-03-03T22:16:31;100186.25;;;4.86;81.08
55757;BME280;41676;44.610;44.078;2023-03-03T22:21:32;100043.94;;;3.89;80.31
55757;BME280;41676;44.610;44.078;2023-03-03T22:26:34;100163.81;;;4.82;81.14
55757;BME280;41676;44.610;44.078;2023-03-03T22:31:35;100187.72;;;4.69;81.47
55757;BME280;41676;44.610;44.078;2023-03-03T22:36:36;100155.91;;;4.42;81.65
55757;BME280;41676;44.610;44.078;2023-03-03T22:41:37;100099.66;;;4.14;80.61
55757;BME280;41676;44.610;44.078;2023-03-03T22:46:38;100182.44;;;4.60;81.62
55757;BME280;41676;44.610;44.078;2023-03-03T22:51:38;100132.41;;;4.40;81.67
55757;BME280;41676;44.610;44.078;2023-03-03T22:56:39;100167.94;;;4.75;81.75
55757;BME280;41676;44.610;44.078;2023-03-03T23:01:40;100132.47;;;4.69;81.74
55757;BME280;41676;44.610;44.078;2023-03-03T23:06:40;100091.59;;;4.46;82.11
55757;BME280;41676;44.610;44.078;2023-03-03T23:11:43;100148.78;;;4.63;82.18
55757;BME280;41676;44.610;44.078;2023-03-03T23:16:43;100126.09;;;4.62;82.68
55757;BME280;41676;44.610;44.078;2023-03-03T23:21:45;100127.44;;;4.56;82.15
55757;BME280;41676;44.610;44.078;2023-03-03T23:26:45;100010.81;;;3.77;83.08
55757;BME280;41676;44.610;44.078;2023-03-03T23:31:46;100031.94;;;4.06;83.18
55757;BME280;41676;44.610;44.078;2023-03-03T23:36:47;100119.25;;;4.40;83.25
55757;BME280;41676;44.610;44.078;2023-03-03T23:41:48;100074.38;;;4.32;83.78
55757;BME280;41676;44.610;44.078;2023-03-03T23:46:48;100064.69;;;4.42;83.85
55757;BME280;41676;44.610;44.078;2023-03-03T23:51:49;100091.25;;;4.39;84.29
55757;BME280;41676;44.610;44.078;2023-03-03T23:56:50;100107.94;;;4.69;84.49
